Time;durP1;ratioP1;P1;durP2;ratioP2;P2;SDS_P1;SDS_P2;PMS_P1;PMS_P2;Temp;Humidity;BMP_temperature;BMP_pressure;BME280_temperature;BME280_humidity;BME280_pressure;Samples;Min_cycle;Max_cycle;Signal;HPM_P1;HPM_P2
2022/11/14 00:01:13;;;;;;;;;;;;;;;;;;5039947;28;19908;-57
2022/11/14 00:03:39;;;;;;;;;;;;;;;;;;5067051;28;19913;-56
2022/11/14 00:06:05;;;;;;;;;;;;;;;;;;5051679;28;19908;-56
2022/11/14 00:08:31;;;;;;;;;;;;;;;;;;5054551;28;19943;-56
2022/11/14 00:10:57;;;;;;;;;;;;;;;;;;5067670;28;19959;-56
2022/11/14 00:13:23;;;;;;;;;;;;;;;;;;5052172;28;19905;-55
2022/11/14 00:15:49;;;;;;;;;;;;;;;;;;5058885;28;19909;-56
2022/11/14 00:18:15;;;;;;;;;;;;;;;;;;5051863;28;20006;-55
2022/11/14 00:20:41;;;;;;;;;;;;;;;;;;5067034;28;20333;-56
2022/11/14 00:23:07;;;;;;;;;;;;;;;;;;5070819;28;19922;-56
2022/11/14 00:25:33;;;;;;;;;;;;;;;;;;5046711;28;19995;-58
2022/11/14 00:27:58;;;;;;;;;;;;;;;;;;5071609;28;19913;-60
2022/11/14 00:30:24;;;;;;;;;;;;;;;;;;5059032;28;19955;-56
2022/11/14 00:32:50;;;;;;;;;;;;;;;;;;5066920;28;20360;-57
2022/11/14 00:35:16;;;;;;;;;;;;;;;;;;5069986;28;19995;-55
2022/11/14 00:37:42;;;;;;;;;;;;;;;;;;5071962;28;19994;-56
2022/11/14 00:40:08;;;;;;;;;;;;;;;;;;5046391;28;19916;-55
2022/11/14 00:42:34;;;;;;;;;;;;;;;;;;5041035;28;20365;-58
2022/11/14 00:45:00;;;;;;;;;;;;;;;;;;5062215;28;19918;-59
2022/11/14 00:47:26;;;;;;;;;;;;;;;;;;5071721;28;19915;-59
2022/11/14 00:49:51;;;;;;;;;;;;;;;;;;5071536;28;19995;-56
2022/11/14 00:52:17;;;;;;;;;;;;;;;;;;5061834;28;20336;-56
2022/11/14 00:54:43;;;;;;;;;;;;;;;;;;5053783;28;19958;-57
2022/11/14 00:57:09;;;;;;;;;;;;;;;;;;5058758;28;19961;-56
2022/11/14 00:59:35;;;;;;;;;;;;;;;;;;5069506;28;19912;-58
2022/11/14 01:02:01;;;;;;;;;;;;;;;;;;5069565;28;20357;-53
2022/11/14 01:04:27;;;;;;;;;;;;;;;;;;5048097;28;19909;-57
2022/11/14 01:06:53;;;;;;;;;;;;;;;;;;5065952;28;19967;-55
2022/11/14 01:09:19;;;;;;;;;;;;;;;;;;5050897;28;19935;-56
2022/11/14 01:11:45;;;;;;;;;;;;;;;;;;5051575;28;19963;-53
2022/11/14 01:14:10;;;;;;;;;;;;;;;;;;5053977;28;20435;-54
2022/11/14 01:16:36;;;;;;;;;;;;;;;;;;5072281;28;19909;-54
2022/11/14 01:19:02;;;;;;;;;;;;;;;;;;5055644;28;19908;-53
2022/11/14 01:21:28;;;;;;;;;;;;;;;;;;5055258;28;19905;-54
2022/11/14 01:23:54;;;;;;;;;;;;;;;;;;5055418;28;19915;-53
2022/11/14 01:26:20;;;;;;;;;;;;;;;;;;5055241;28;19921;-56
2022/11/14 01:28:46;;;;;;;;;;;;;;;;;;5072796;28;19909;-58
2022/11/14 01:31:12;;;;;;;;;;;;;;;;;;5056340;28;20006;-57
2022/11/14 01:33:38;;;;;;;;;;;;;;;;;;5055061;28;19995;-56
2022/11/14 01:36:04;;;;;;;;;;;;;;;;;;5054995;28;19908;-54
2022/11/14 01:38:30;;;;;;;;;;;;;;;;;;5070474;28;20386;-54
2022/11/14 01:40:55;;;;;;;;;;;;;;;;;;5070774;28;19970;-53
2022/11/14 01:43:21;;;;;;;;;;;;;;;;;;5054939;28;20356;-57
2022/11/14 01:45:47;;;;;;;;;;;;;;;;;;5038173;28;19912;-54
2022/11/14 01:48:13;;;;;;;;;;;;;;;;;;5067811;28;19916;-54
2022/11/14 01:50:39;;;;;;;;;;;;;;;;;;5074486;28;20289;-54
2022/11/14 01:53:05;;;;;;;;;;;;;;;;;;5074244;28;19915;-56
2022/11/14 01:55:31;;;;;;;;;;;;;;;;;;5059155;28;19908;-55
2022/11/14 01:57:57;;;;;;;;;;;;;;;;;;5065738;28;19915;-57
2022/11/14 02:00:23;;;;;;;;;;;;;;;;;;5040695;28;19932;-56
2022/11/14 02:02:48;;;;;;;;;;;;;;;;;;5057099;28;20388;-55
2022/11/14 02:05:14;;;;;;;;;;;;;;;;;;5073826;28;19915;-57
2022/11/14 02:07:40;;;;;;;;;;;;;;;;;;5065842;28;19913;-58
2022/11/14 02:10:06;;;;;;;;;;;;;;;;;;5068257;28;19908;-58
2022/11/14 02:12:32;;;;;;;;;;;;;;;;;;5074488;28;19908;-57
2022/11/14 02:14:58;;;;;;;;;;;;;;;;;;5058824;28;19955;-53
2022/11/14 02:17:24;;;;;;;;;;;;;;;;;;5067163;28;20429;-54
2022/11/14 02:19:50;;;;;;;;;;;;;;;;;;5053883;28;19948;-57
2022/11/14 02:22:16;;;;;;;;;;;;;;;;;;5055189;28;19908;-57
2022/11/14 02:24:42;;;;;;;;;;;;;;;;;;5057776;28;19908;-54
2022/11/14 02:27:08;;;;;;;;;;;;;;;;;;5048176;28;19913;-56
2022/11/14 02:29:34;;;;;;;;;;;;;;;;;;5037617;28;19905;-57
2022/11/14 02:31:59;;;;;;;;;;;;;;;;;;5055026;28;19909;-58
2022/11/14 02:34:25;;;;;;;;;;;;;;;;;;5073384;28;19916;-56
2022/11/14 02:36:51;;;;;;;;;;;;;;;;;;5072146;28;19931;-56
2022/11/14 02:39:17;;;;;;;;;;;;;;;;;;5073303;28;20373;-57
2022/11/14 02:41:43;;;;;;;;;;;;;;;;;;5055516;28;19919;-59
2022/11/14 02:44:09;;;;;;;;;;;;;;;;;;5037710;28;19913;-58
2022/11/14 02:46:35;;;;;;;;;;;;;;;;;;5073430;28;19908;-56
2022/11/14 02:49:01;;;;;;;;;;;;;;;;;;5041336;28;19908;-53
2022/11/14 02:51:27;;;;;;;;;;;;;;;;;;5071770;28;19908;-57
2022/11/14 02:53:53;;;;;;;;;;;;;;;;;;5058333;28;19909;-53
2022/11/14 02:56:19;;;;;;;;;;;;;;;;;;5053773;28;19908;-54
2022/11/14 02:58:44;;;;;;;;;;;;;;;;;;5072865;28;19912;-54
2022/11/14 03:01:10;;;;;;;;;;;;;;;;;;5073513;28;19991;-59
2022/11/14 03:03:36;;;;;;;;;;;;;;;;;;5048238;28;20700;-55
2022/11/14 03:06:02;;;;;;;;;;;;;;;;;;5056860;28;20288;-56
2022/11/14 03:08:28;;;;;;;;;;;;;;;;;;5053209;28;19916;-58
2022/11/14 03:10:54;;;;;;;;;;;;;;;;;;5072446;28;20319;-56
2022/11/14 03:13:20;;;;;;;;;;;;;;;;;;5062238;28;19959;-56
2022/11/14 03:15:46;;;;;;;;;;;;;;;;;;5053436;28;20337;-56
2022/11/14 03:18:12;;;;;;;;;;;;;;;;;;5069655;28;19912;-57
2022/11/14 03:20:38;;;;;;;;;;;;;;;;;;5072267;28;20419;-57
2022/11/14 03:23:04;;;;;;;;;;;;;;;;;;5055003;28;19909;-58
2022/11/14 03:25:29;;;;;;;;;;;;;;;;;;5036686;28;19909;-53
2022/11/14 03:27:55;;;;;;;;;;;;;;;;;;5034924;28;19915;-53
2022/11/14 03:30:21;;;;;;;;;;;;;;;;;;5052842;28;19916;-54
2022/11/14 03:32:47;;;;;;;;;;;;;;;;;;5062527;28;20404;-54
2022/11/14 03:35:13;;;;;;;;;;;;;;;;;;5070776;28;19908;-53
2022/11/14 03:37:39;;;;;;;;;;;;;;;;;;5071713;28;19915;-53
2022/11/14 03:40:05;;;;;;;;;;;;;;;;;;5072264;28;19931;-58
2022/11/14 03:42:31;;;;;;;;;;;;;;;;;;5054784;28;20277;-57
2022/11/14 03:44:57;;;;;;;;;;;;;;;;;;5053772;28;19908;-58
2022/11/14 03:47:23;;;;;;;;;;;;;;;;;;5066311;28;19916;-58
2022/11/14 03:49:48;;;;;;;;;;;;;;;;;;5071722;28;19967;-59
2022/11/14 03:52:14;;;;;;;;;;;;;;;;;;5061921;28;20373;-60
2022/11/14 03:54:40;;;;;;;;;;;;;;;;;;5055136;28;19987;-60
2022/11/14 03:57:06;;;;;;;;;;;;;;;;;;5071593;28;19904;-57
2022/11/14 03:59:32;;;;;;;;;;;;;;;;;;5066836;28;19919;-55
2022/11/14 04:01:58;;;;;;;;;;;;;;;;;;5053107;28;20347;-60
2022/11/14 04:04:24;;;;;;;;;;;;;;;;;;5063266;28;19913;-56
2022/11/14 04:06:50;;;;;;;;;;;;;;;;;;5053229;28;19916;-58
2022/11/14 04:09:16;;;;;;;;;;;;;;;;;;5051886;28;19911;-53
2022/11/14 04:11:42;;;;;;;;;;;;;;;;;;5035964;28;19912;-54
2022/11/14 04:14:08;;;;;;;;;;;;;;;;;;5045232;28;19913;-56
2022/11/14 04:16:34;;;;;;;;;;;;;;;;;;5051881;28;19991;-57
2022/11/14 04:18:59;;;;;;;;;;;;;;;;;;5065471;28;20269;-59
2022/11/14 04:21:25;;;;;;;;;;;;;;;;;;5072002;28;19904;-58
2022/11/14 04:23:51;;;;;;;;;;;;;;;;;;5051876;28;19912;-58
2022/11/14 04:26:17;;;;;;;;;;;;;;;;;;5054247;28;19920;-57
2022/11/14 04:28:43;;;;;;;;;;;;;;;;;;5071864;28;19912;-60
2022/11/14 04:31:09;;;;;;;;;;;;;;;;;;5071715;28;20323;-59
2022/11/14 04:33:35;;;;;;;;;;;;;;;;;;5065830;28;19967;-58
2022/11/14 04:36:01;;;;;;;;;;;;;;;;;;5051954;28;19909;-58
2022/11/14 04:38:27;;;;;;;;;;;;;;;;;;5051207;28;20019;-55
2022/11/14 04:40:53;;;;;;;;;;;;;;;;;;5053613;28;19966;-54
2022/11/14 04:43:19;;;;;;;;;;;;;;;;;;5071944;28;19911;-55
2022/11/14 04:45:44;;;;;;;;;;;;;;;;;;5071786;28;19904;-58
2022/11/14 04:48:10;;;;;;;;;;;;;;;;;;5047534;28;19916;-56
2022/11/14 04:50:36;;;;;;;;;;;;;;;;;;5074834;28;20389;-56
2022/11/14 04:53:02;;;;;;;;;;;;;;;;;;5073697;28;19911;-55
2022/11/14 04:55:28;;;;;;;;;;;;;;;;;;5059343;28;19908;-56
2022/11/14 04:57:54;;;;;;;;;;;;;;;;;;5075512;28;20422;-56
2022/11/14 05:00:20;;;;;;;;;;;;;;;;;;5080219;22;19967;-58
2022/11/14 05:02:46;;;;;;;;;;;;;;;;;;5055307;28;19908;-57
2022/11/14 05:05:12;;;;;;;;;;;;;;;;;;5055661;28;20250;-58
2022/11/14 05:07:38;;;;;;;;;;;;;;;;;;5055587;28;19916;-57
2022/11/14 05:10:04;;;;;;;;;;;;;;;;;;5055360;28;19904;-56
2022/11/14 05:12:30;;;;;;;;;;;;;;;;;;5055319;28;19912;-58
2022/11/14 05:14:56;;;;;;;;;;;;;;;;;;5055866;28;20371;-56
2022/11/14 05:17:22;;;;;;;;;;;;;;;;;;5055500;28;19905;-58
2022/11/14 05:19:48;;;;;;;;;;;;;;;;;;5055255;28;19911;-56
2022/11/14 05:22:13;;;;;;;;;;;;;;;;;;5055582;28;19928;-56
2022/11/14 05:24:39;;;;;;;;;;;;;;;;;;5055504;28;19912;-57
2022/11/14 05:27:05;;;;;;;;;;;;;;;;;;5055344;28;19962;-56
2022/11/14 05:29:31;;;;;;;;;;;;;;;;;;5055040;28;19959;-56
2022/11/14 05:31:57;;;;;;;;;;;;;;;;;;5055261;28;19915;-59
2022/11/14 05:34:23;;;;;;;;;;;;;;;;;;5055235;28;19904;-58
2022/11/14 05:36:49;;;;;;;;;;;;;;;;;;5055211;28;19927;-57
2022/11/14 05:39:15;;;;;;;;;;;;;;;;;;5054976;28;20440;-57
2022/11/14 05:41:41;;;;;;;;;;;;;;;;;;5055030;28;19950;-56
2022/11/14 05:44:07;;;;;;;;;;;;;;;;;;5055008;28;20266;-56
2022/11/14 05:46:33;;;;;;;;;;;;;;;;;;5054919;28;19909;-56
2022/11/14 05:48:59;;;;;;;;;;;;;;;;;;5054173;28;19955;-56
2022/11/14 05:51:24;;;;;;;;;;;;;;;;;;5054921;28;19958;-57
2022/11/14 05:53:50;;;;;;;;;;;;;;;;;;5054786;28;19920;-57
2022/11/14 05:56:16;;;;;;;;;;;;;;;;;;5054869;28;20482;-56
2022/11/14 05:58:42;;;;;;;;;;;;;;;;;;5054495;28;19909;-55
2022/11/14 06:01:08;;;;;;;;;;;;;;;;;;5047802;28;19913;-56
2022/11/14 06:03:34;;;;;;;;;;;;;;;;;;5034741;28;19905;-58
2022/11/14 06:06:01;;;;;;;;;;;;;;;;;;5034590;28;20300;-55
2022/11/14 06:08:27;;;;;;;;;;;;;;;;;;5034355;28;19951;-56
2022/11/14 06:10:53;;;;;;;;;;;;;;;;;;5034717;28;19967;-54
2022/11/14 06:13:18;;;;;;;;;;;;;;;;;;5034516;28;19905;-55
2022/11/14 06:15:44;;;;;;;;;;;;;;;;;;5034526;28;19912;-57
2022/11/14 06:18:10;;;;;;;;;;;;;;;;;;5034362;28;20277;-57
2022/11/14 06:20:36;;;;;;;;;;;;;;;;;;5034525;28;19905;-57
2022/11/14 06:23:02;;;;;;;;;;;;;;;;;;5034344;28;19906;-56
2022/11/14 06:25:28;;;;;;;;;;;;;;;;;;5034332;28;19905;-57
2022/11/14 06:27:54;;;;;;;;;;;;;;;;;;5034202;28;19909;-57
2022/11/14 06:30:20;;;;;;;;;;;;;;;;;;5034033;28;19905;-58
2022/11/14 06:32:46;;;;;;;;;;;;;;;;;;5034282;28;19999;-61
2022/11/14 06:35:12;;;;;;;;;;;;;;;;;;5034318;28;19941;-61
2022/11/14 06:37:37;;;;;;;;;;;;;;;;;;5016247;28;20400;-58
2022/11/14 06:40:03;;;;;;;;;;;;;;;;;;5033910;28;19959;-64
2022/11/14 06:42:29;;;;;;;;;;;;;;;;;;5034123;28;19959;-60
2022/11/14 06:44:55;;;;;;;;;;;;;;;;;;5034107;28;19905;-60
2022/11/14 06:47:21;;;;;;;;;;;;;;;;;;5033894;28;20516;-60
2022/11/14 06:49:47;;;;;;;;;;;;;;;;;;5033708;28;19913;-60
2022/11/14 06:52:13;;;;;;;;;;;;;;;;;;5033799;28;19905;-61
2022/11/14 06:54:39;;;;;;;;;;;;;;;;;;5033994;28;19919;-60
2022/11/14 06:57:05;;;;;;;;;;;;;;;;;;5033854;28;19912;-57
2022/11/14 06:59:31;;;;;;;;;;;;;;;;;;5033400;28;19997;-58
2022/11/14 07:01:57;;;;;;;;;;;;;;;;;;5033770;28;19912;-59
2022/11/14 07:04:22;;;;;;;;;;;;;;;;;;5033605;28;19928;-58
2022/11/14 07:06:48;;;;;;;;;;;;;;;;;;5033508;28;19909;-58
2022/11/14 07:09:14;;;;;;;;;;;;;;;;;;5042636;28;20373;-58
2022/11/14 07:11:40;;;;;;;;;;;;;;;;;;5052361;28;19912;-58
2022/11/14 07:14:06;;;;;;;;;;;;;;;;;;5053268;28;19936;-58
2022/11/14 07:16:34;;;;;;;;;;;;;;;;;;5053275;28;19998;-58
2022/11/14 07:19:00;;;;;;;;;;;;;;;;;;5053121;28;19908;-57
2022/11/14 07:21:25;;;;;;;;;;;;;;;;;;5053197;28;19905;-59
2022/11/14 07:23:51;;;;;;;;;;;;;;;;;;5053125;28;19901;-59
2022/11/14 07:26:17;;;;;;;;;;;;;;;;;;5052966;28;20276;-60
2022/11/14 07:28:43;;;;;;;;;;;;;;;;;;5052859;28;19908;-60
2022/11/14 07:31:11;;;;;;;;;;;;;;;;;;5053221;28;19962;-51
2022/11/14 07:33:45;;;;;;;;;;;;;;;;;;5110173;27;19934;-51
2022/11/14 07:36:11;;;;;;;;;;;;;;;;;;5110100;28;19916;-50
2022/11/14 07:38:37;;;;;;;;;;;;;;;;;;5108618;28;19915;-50
2022/11/14 07:41:03;;;;;;;;;;;;;;;;;;5110110;28;19908;-50
2022/11/14 07:43:29;;;;;;;;;;;;;;;;;;5109991;28;19954;-52
2022/11/14 07:45:55;;;;;;;;;;;;;;;;;;5110012;28;19961;-59
2022/11/14 07:48:21;;;;;;;;;;;;;;;;;;5106365;28;19908;-56
2022/11/14 07:50:47;;;;;;;;;;;;;;;;;;5099310;28;19912;-62
2022/11/14 07:53:14;;;;;;;;;;;;;;;;;;5089327;28;19920;-59
2022/11/14 07:55:40;;;;;;;;;;;;;;;;;;5089607;28;19913;-58
2022/11/14 07:58:06;;;;;;;;;;;;;;;;;;5089247;28;19970;-58
2022/11/14 08:00:32;;;;;;;;;;;;;;;;;;5089240;28;19908;-59
2022/11/14 08:02:57;;;;;;;;;;;;;;;;;;5089429;28;19911;-60
2022/11/14 08:05:23;;;;;;;;;;;;;;;;;;5089247;28;19916;-57
2022/11/14 08:07:49;;;;;;;;;;;;;;;;;;5089082;28;20304;-57
2022/11/14 08:10:16;;;;;;;;;;;;;;;;;;5088919;28;19919;-57
2022/11/14 08:12:42;;;;;;;;;;;;;;;;;;5089052;28;19913;-58
2022/11/14 08:15:08;;;;;;;;;;;;;;;;;;5089126;28;19908;-59
2022/11/14 08:17:34;;;;;;;;;;;;;;;;;;5088783;28;19922;-59
2022/11/14 08:20:00;;;;;;;;;;;;;;;;;;5088711;28;19919;-56
2022/11/14 08:22:26;;;;;;;;;;;;;;;;;;5088841;28;19918;-58
2022/11/14 08:24:52;;;;;;;;;;;;;;;;;;5088880;28;19931;-59
2022/11/14 08:27:18;;;;;;;;;;;;;;;;;;5088872;28;19913;-59
2022/11/14 08:29:44;;;;;;;;;;;;;;;;;;5088657;28;19915;-59
2022/11/14 08:32:10;;;;;;;;;;;;;;;;;;5094710;28;20391;-60
2022/11/14 08:34:35;;;;;;;;;;;;;;;;;;5092357;28;19908;-60
2022/11/14 08:37:01;;;;;;;;;;;;;;;;;;5092209;28;19912;-59
2022/11/14 08:39:27;;;;;;;;;;;;;;;;;;5102562;28;19936;-59
2022/11/14 08:41:53;;;;;;;;;;;;;;;;;;5100011;28;20388;-59
2022/11/14 08:44:19;;;;;;;;;;;;;;;;;;5099894;28;19962;-56
2022/11/14 08:46:45;;;;;;;;;;;;;;;;;;5095603;28;19908;-57
2022/11/14 08:49:11;;;;;;;;;;;;;;;;;;5095108;28;19908;-58
2022/11/14 08:51:37;;;;;;;;;;;;;;;;;;5094993;28;19916;-58
2022/11/14 08:54:03;;;;;;;;;;;;;;;;;;5095145;28;20287;-59
2022/11/14 08:56:29;;;;;;;;;;;;;;;;;;5095236;28;19905;-55
2022/11/14 08:58:54;;;;;;;;;;;;;;;;;;5094878;28;20364;-58
2022/11/14 09:01:20;;;;;;;;;;;;;;;;;;5095089;28;19913;-58
2022/11/14 09:03:46;;;;;;;;;;;;;;;;;;5094905;28;19919;-59
2022/11/14 09:06:12;;;;;;;;;;;;;;;;;;5094465;28;20290;-61
2022/11/14 09:08:38;;;;;;;;;;;;;;;;;;5094650;28;19908;-61
2022/11/14 09:11:05;;;;;;;;;;;;;;;;;;5094806;28;20284;-61
2022/11/14 09:13:31;;;;;;;;;;;;;;;;;;5094683;28;19912;-61
2022/11/14 09:15:57;;;;;;;;;;;;;;;;;;5084894;28;19939;-61
2022/11/14 09:18:23;;;;;;;;;;;;;;;;;;5074236;28;19908;-61
2022/11/14 09:20:49;;;;;;;;;;;;;;;;;;5074337;28;19912;-61
2022/11/14 09:23:15;;;;;;;;;;;;;;;;;;5074204;28;20373;-61
2022/11/14 09:25:41;;;;;;;;;;;;;;;;;;5074153;28;20334;-61
2022/11/14 09:28:07;;;;;;;;;;;;;;;;;;5074000;28;19948;-61
2022/11/14 09:30:33;;;;;;;;;;;;;;;;;;5074030;28;20373;-60
2022/11/14 09:33:00;;;;;;;;;;;;;;;;;;5073826;28;19916;-61
2022/11/14 09:35:26;;;;;;;;;;;;;;;;;;5073934;28;19920;-61
2022/11/14 09:37:52;;;;;;;;;;;;;;;;;;5073954;28;19991;-61
2022/11/14 09:40:18;;;;;;;;;;;;;;;;;;5073699;28;20043;-60
2022/11/14 09:42:43;;;;;;;;;;;;;;;;;;5073901;28;19915;-61
2022/11/14 09:45:10;;;;;;;;;;;16.90;68.40;;;;;;5073810;28;20402;-60
2022/11/14 09:47:44;;;;;;;;;;;14.30;90.00;;;;;;5072518;28;19967;-61
2022/11/14 09:50:09;;;;;;;;;;;14.30;89.80;;;;;;5073393;28;19909;-61
2022/11/14 09:52:35;;;;;;;;;;;14.30;88.90;;;;;;5073516;28;20422;-61
2022/11/14 09:55:10;;;;;;;;;;;14.40;88.50;;;;;;5072846;28;19908;-61
2022/11/14 09:57:36;;;;;;;;;;;14.50;87.30;;;;;;5073499;28;19912;-60
2022/11/14 10:00:01;;;;;;;;;;;14.30;86.10;;;;;;5073314;28;19909;-63
2022/11/14 10:02:27;;;;;;;;;;;14.30;86.60;;;;;;5073618;28;19922;-63
2022/11/14 10:04:59;;;;;;;;;;;14.40;87.80;;;;;;5073305;28;20280;-62
2022/11/14 10:07:27;;;;;;;;;;;14.50;86.00;;;;;;5073364;28;19950;-63
2022/11/14 10:10:06;;;;;;;;;;;14.60;87.10;;;;;;5073147;28;19909;-62
2022/11/14 10:12:38;;;;;;;;;;;14.70;87.00;;;;;;5073156;28;19912;-63
2022/11/14 10:15:03;;;;;;;;;;;14.90;86.80;;;;;;5071873;28;20284;-63
2022/11/14 10:17:35;;;;;;;;;;;15.00;85.60;;;;;;5073031;28;19915;-63
2022/11/14 10:20:08;;;;;;;;;;;15.20;85.20;;;;;;5072926;28;19908;-63
2022/11/14 10:22:52;;;;;;;;;;;15.30;86.00;;;;;;5071767;28;19909;-63
2022/11/14 10:25:38;;;;;;;;;;;15.50;83.90;;;;;;5072886;28;19938;-63
2022/11/14 10:28:19;;;;;;;;;;;15.60;83.70;;;;;;5065368;28;19909;-63
2022/11/14 10:30:52;;;;;;;;;;;15.70;84.30;;;;;;5072913;28;19944;-62
2022/11/14 10:33:44;;;;;;;;;;;15.90;84.30;;;;;;5071380;28;19924;-63
2022/11/14 10:36:20;;;;;;;;;;;15.90;82.60;;;;;;5069880;28;19961;-62
2022/11/14 10:38:48;;;;;;;;;;;15.90;82.60;;;;;;5072567;28;19954;-63
2022/11/14 10:41:14;;;;;;;;;;;15.90;80.70;;;;;;5071430;28;19908;-63
2022/11/14 10:43:46;;;;;;;;;;;16.00;80.80;;;;;;5072732;28;19931;-63
2022/11/14 10:46:20;;;;;;;;;;;15.80;78.60;;;;;;5072545;28;20385;-63
2022/11/14 10:48:47;;;;;;;;;;;15.70;80.80;;;;;;5072271;28;19912;-62
2022/11/14 10:51:15;;;;;;;;;;;15.70;81.40;;;;;;5072634;28;20365;-63
2022/11/14 10:53:55;;;;;;;;;;;15.80;79.50;;;;;;5072427;28;19937;-63
2022/11/14 10:56:21;;;;;;;;;;;15.70;77.60;;;;;;5072420;28;19915;-63
2022/11/14 10:58:46;;;;;;;;;;;15.70;80.90;;;;;;5092080;22;20292;-51
2022/11/14 11:01:30;;;;;;;;;;;15.70;80.00;;;;;;5032242;28;20407;-54
2022/11/14 11:03:56;;;;;;;;;;;15.70;79.90;;;;;;5032480;28;19968;-55
2022/11/14 11:06:25;;;;;;;;;;;15.60;78.80;;;;;;5032274;28;20450;-55
2022/11/14 11:11:37;;;;;;;;;;;15.40;80.10;;;;;;5032646;28;20388;-52
2022/11/14 11:14:03;;;;;;;;;;;15.50;81.00;;;;;;5032174;28;19913;-51
2022/11/14 11:16:28;;;;;;;;;;;15.50;80.20;;;;;;5028925;28;19932;-55
2022/11/14 11:19:11;;;;;;;;;;;15.50;80.40;;;;;;5031523;28;20003;-55
2022/11/14 11:21:55;;;;;;;;;;;15.50;80.20;;;;;;5024270;28;20063;-53
2022/11/14 11:24:39;;;;;;;;;;;15.50;80.60;;;;;;5031676;28;19964;-53
2022/11/14 11:27:14;;;;;;;;;;;15.50;81.00;;;;;;5031259;28;19967;-56
2022/11/14 11:29:39;;;;;;;;;;;15.30;81.30;;;;;;5029752;28;20313;-53
2022/11/14 11:32:06;;;;;;;;;;;15.40;82.00;;;;;;5031549;28;19921;-56
2022/11/14 11:34:33;;;;;;;;;;;15.50;81.70;;;;;;5019477;28;19914;-55
2022/11/14 11:37:04;;;;;;;;;;;15.60;81.00;;;;;;5020286;28;19917;-56
2022/11/14 11:39:32;;;;;;;;;;;15.60;81.60;;;;;;5031713;28;19909;-55
2022/11/14 11:42:00;;;;;;;;;;;15.60;82.50;;;;;;5030622;28;19913;-53
2022/11/14 11:44:34;;;;;;;;;;;15.60;82.00;;;;;;5030143;28;19917;-56
2022/11/14 11:47:00;;;;;;;;;;;15.70;81.00;;;;;;5030928;28;19913;-55
2022/11/14 11:49:28;;;;;;;;;;;15.60;78.90;;;;;;5031548;28;20297;-56
2022/11/14 11:51:54;;;;;;;;;;;15.50;80.90;;;;;;5031722;28;20003;-55
2022/11/14 11:54:32;;;;;;;;;;;15.40;81.30;;;;;;5031741;28;19951;-53
2022/11/14 11:56:59;;;;;;;;;;;15.40;80.50;;;;;;5032035;28;19909;-52
2022/11/14 11:59:32;;;;;;;;;;;15.30;80.80;;;;;;5028130;28;19921;-55
2022/11/14 12:02:02;;;;;;;;;;;15.30;81.30;;;;;;5022722;28;19913;-53
2022/11/14 12:04:29;;;;;;;;;;;15.30;81.00;;;;;;5025504;28;19944;-55
2022/11/14 12:07:08;;;;;;;;;;;15.20;81.30;;;;;;5031914;28;19909;-52
2022/11/14 12:09:38;;;;;;;;;;;15.10;81.50;;;;;;5020698;28;19936;-54
2022/11/14 12:12:05;;;;;;;;;;;15.10;82.30;;;;;;5026974;28;19917;-53
2022/11/14 12:14:37;;;;;;;;;;;15.10;82.10;;;;;;5022490;28;20393;-55
2022/11/14 12:17:29;;;;;;;;;;;15.10;82.50;;;;;;5025322;28;19939;-52
2022/11/14 12:20:00;;;;;;;;;;;15.00;82.20;;;;;;5027934;28;20008;-55
2022/11/14 12:22:44;;;;;;;;;;;14.90;82.60;;;;;;5024613;28;19979;-52
2022/11/14 12:25:48;;;;;;;;;;;14.80;82.20;;;;;;5027418;28;19947;-53
2022/11/14 12:28:28;;;;;;;;;;;14.70;83.70;;;;;;4993440;28;19917;-56
2022/11/14 12:30:56;;;;;;;;;;;14.70;83.50;;;;;;4993070;28;20397;-52
2022/11/14 12:33:21;;;;;;;;;;;14.70;83.60;;;;;;5007775;28;19913;-54
2022/11/14 12:35:51;;;;;;;;;;;14.60;83.60;;;;;;5034888;28;19935;-54
2022/11/14 12:38:18;;;;;;;;;;;14.60;84.20;;;;;;5034988;28;20003;-52
2022/11/14 12:41:01;;;;;;;;;;;14.70;84.80;;;;;;5034783;28;19921;-52
2022/11/14 12:43:32;;;;;;;;;;;14.60;84.40;;;;;;5034942;28;20000;-54
2022/11/14 12:45:58;;;;;;;;;;;14.50;86.00;;;;;;5033583;28;20350;-54
2022/11/14 12:48:24;;;;;;;;;;;14.40;85.70;;;;;;5034755;28;20374;-54
2022/11/14 12:50:50;;;;;;;;;;;;;;;;;;5034494;28;19913;-54
2022/11/14 12:53:36;;;;;;;;;;;14.40;86.00;;;;;;5035003;28;19921;-55
2022/11/14 12:56:17;;;;;;;;;;;14.40;86.90;;;;;;5025484;28;20369;-55
2022/11/14 12:58:51;;;;;;;;;;;14.40;86.10;;;;;;5034523;28;19909;-55
2022/11/14 13:01:25;;;;;;;;;;;14.40;86.10;;;;;;5034658;28;19917;-53
2022/11/14 13:03:51;;;;;;;;;;;14.50;85.70;;;;;;5034487;28;19921;-53
2022/11/14 13:06:23;;;;;;;;;;;14.60;85.50;;;;;;5034589;28;19917;-56
2022/11/14 13:08:58;;;;;;;;;;;14.90;84.60;;;;;;5033944;28;19913;-53
2022/11/14 13:22:37;;;;;;;;;;;18.60;69.80;;;;;;5024536;28;20055;-53
2022/11/14 13:25:02;;;;;;;;;;;19.00;65.90;;;;;;5025635;28;19971;-54
2022/11/14 13:27:29;;;;;;;;;;;19.00;66.60;;;;;;5033061;28;19909;-54
2022/11/14 13:29:56;;;;;;;;;;;19.70;65.10;;;;;;5033635;28;20381;-56
2022/11/14 13:32:40;;;;;;;;;;;20.70;59.50;;;;;;5033948;28;19924;-56
2022/11/14 13:35:17;;;;;;;;;;;21.00;59.00;;;;;;5028913;28;19920;-55
2022/11/14 13:37:58;;;;;;;;;;;20.50;58.10;;;;;;5028285;28;20032;-54
2022/11/14 13:40:29;;;;;;;;;;;19.90;60.00;;;;;;5027775;28;20019;-54
2022/11/14 13:42:55;;;;;;;;;;;19.20;60.60;;;;;;5018780;28;19921;-54
2022/11/14 13:45:49;;;;;;;;;;;18.60;63.70;;;;;;5023091;28;19917;-54
2022/11/14 13:48:22;;;;;;;;;;;18.00;65.00;;;;;;5024667;28;19955;-54
2022/11/14 13:50:54;;;;;;;;;;;17.40;68.90;;;;;;5032379;28;19913;-54
2022/11/14 13:53:24;;;;;;;;;;;16.90;70.10;;;;;;5032864;28;19924;-54
2022/11/14 13:55:54;;;;;;;;;;;16.50;72.50;;;;;;5033301;28;19961;-54
2022/11/14 13:58:29;;;;;;;;;;;16.20;72.60;;;;;;5033451;28;19909;-52
2022/11/14 14:01:01;;;;;;;;;;;16.20;73.90;;;;;;5033242;28;20328;-54
2022/11/14 14:03:44;;;;;;;;;;;16.10;73.30;;;;;;5033401;28;19917;-55
2022/11/14 14:06:14;;;;;;;;;;;16.10;74.30;;;;;;5033207;28;19913;-55
2022/11/14 14:08:49;;;;;;;;;;;16.10;75.20;;;;;;5033084;28;19920;-54
2022/11/14 14:11:44;;;;;;;;;;;16.10;75.60;;;;;;5033182;28;20405;-56
2022/11/14 14:14:27;;;;;;;;;;;16.00;76.30;;;;;;5028223;28;20266;-54
2022/11/14 14:16:53;;;;;;;;;;;;;;;;;;5032710;28;20453;-54
2022/11/14 14:19:22;;;;;;;;;;;16.00;76.80;;;;;;5032955;28;19957;-53
2022/11/14 14:21:48;;;;;;;;;;;;;;;;;;5032544;28;20425;-54
2022/11/14 14:24:14;;;;;;;;;;;;;;;;;;5033171;28;19909;-55
2022/11/14 14:26:39;;;;;;;;;;;;;;;;;;5032758;28;20374;-56
2022/11/14 14:29:05;;;;;;;;;;;;;;;;;;5032669;28;20319;-55
2022/11/14 14:31:31;;;;;;;;;;;;;;;;;;5032672;28;19913;-53
2022/11/14 14:33:57;;;;;;;;;;;15.80;77.70;;;;;;5032861;28;19915;-52
2022/11/14 14:36:24;;;;;;;;;;;15.30;78.40;;;;;;5031302;28;19913;-53
2022/11/14 14:38:50;;;;;;;;;;;15.10;78.90;;;;;;5032733;28;19909;-54
2022/11/14 14:41:17;;;;;;;;;;;15.00;79.70;;;;;;5024994;28;19940;-52
2022/11/14 14:43:48;;;;;;;;;;;14.90;80.00;;;;;;5022452;28;20385;-53
2022/11/14 14:46:14;;;;;;;;;;;14.80;81.00;;;;;;5032538;28;20361;-55
2022/11/14 14:48:40;;;;;;;;;;;;;;;;;;5032275;28;19936;-53
2022/11/14 14:51:11;;;;;;;;;;;14.90;81.30;;;;;;5031493;28;20427;-53
2022/11/14 14:53:38;;;;;;;;;;;;;;;;;;5024256;28;20004;-54
2022/11/14 14:56:03;;;;;;;;;;;;;;;;;;5025856;28;19920;-52
2022/11/14 14:58:29;;;;;;;;;;;;;;;;;;5032128;28;19913;-54
2022/11/14 15:00:55;;;;;;;;;;;;;;;;;;5019709;28;19918;-53
2022/11/14 15:03:21;;;;;;;;;;;;;;;;;;5025409;28;20294;-54
2022/11/14 15:05:47;;;;;;;;;;;;;;;;;;5023549;28;19913;-55
2022/11/14 15:08:13;;;;;;;;;;;;;;;;;;5023455;28;20339;-55
2022/11/14 15:10:39;;;;;;;;;;;;;;;;;;5020871;28;19909;-55
2022/11/14 15:13:05;;;;;;;;;;;;;;;;;;5031980;28;19917;-55
2022/11/14 15:15:31;;;;;;;;;;;;;;;;;;5032223;28;19943;-52
2022/11/14 15:17:57;;;;;;;;;;;;;;;;;;5028226;28;19923;-51
2022/11/14 15:20:23;;;;;;;;;;;;;;;;;;5031277;28;20317;-54
2022/11/14 15:22:49;;;;;;;;;;;;;;;;;;5027449;28;19913;-55
2022/11/14 15:25:15;;;;;;;;;;;;;;;;;;5031707;28;19952;-55
2022/11/14 15:27:41;;;;;;;;;;;;;;;;;;5027990;28;20007;-55
2022/11/14 15:30:07;;;;;;;;;;;;;;;;;;5025599;28;19963;-52
2022/11/14 15:32:33;;;;;;;;;;;;;;;;;;5031979;28;20003;-52
2022/11/14 15:34:58;;;;;;;;;;;;;;;;;;5023193;28;19913;-52
2022/11/14 15:37:24;;;;;;;;;;;;;;;;;;5031938;28;19913;-54
2022/11/14 15:39:50;;;;;;;;;;;;;;;;;;5031632;28;19917;-52
2022/11/14 15:42:16;;;;;;;;;;;;;;;;;;5031982;28;19919;-53
2022/11/14 15:44:44;;;;;;;;;;;;;;;;;;5031536;28;20412;-53
2022/11/14 15:47:09;;;;;;;;;;;;;;;;;;5031360;28;19909;-52
2022/11/14 15:49:35;;;;;;;;;;;;;;;;;;5031747;28;20377;-53
2022/11/14 15:52:01;;;;;;;;;;;;;;;;;;5028042;28;19917;-53
2022/11/14 15:54:27;;;;;;;;;;;;;;;;;;5031027;28;19913;-54
2022/11/14 15:56:53;;;;;;;;;;;;;;;;;;5032795;28;19922;-54
2022/11/14 15:59:19;;;;;;;;;;;;;;;;;;5024658;28;20297;-52
2022/11/14 16:01:45;;;;;;;;;;;;;;;;;;5031960;28;19920;-52
2022/11/14 16:04:11;;;;;;;;;;;;;;;;;;5035345;28;19913;-53
2022/11/14 16:06:37;;;;;;;;;;;;;;;;;;5035625;28;19923;-52
2022/11/14 16:09:03;;;;;;;;;;;;;;;;;;5020095;28;20386;-54
2022/11/14 16:11:29;;;;;;;;;;;;;;;;;;5030974;28;19939;-55
2022/11/14 16:13:55;;;;;;;;;;;;;;;;;;5035277;28;19936;-53
2022/11/14 16:16:21;;;;;;;;;;;;;;;;;;5035363;28;20027;-52